sensor_id;sensor_type;location;lat;lon;timestamp;P1;durP1;ratioP1;P2;durP2;ratioP2
64500;SDS011;50874;24.150;-110.320;2023-04-29T00:00:18;25.05;;;3.92;;
64500;SDS011;50874;24.150;-110.320;2023-04-29T00:02:45;12.52;;;2.78;;
64500;SDS011;50874;24.150;-110.320;2023-04-29T00:05:11;14.52;;;3.22;;
64500;SDS011;50874;24.150;-110.320;2023-04-29T00:07:38;10.07;;;2.55;;
64500;SDS011;50874;24.150;-110.320;2023-04-29T00:10:04;17.02;;;3.65;;
64500;SDS011;50874;24.150;-110.320;2023-04-29T00:12:31;7.35;;;3.15;;
64500;SDS011;50874;24.150;-110.320;2023-04-29T00:14:58;11.32;;;3.50;;
64500;SDS011;50874;24.150;-110.320;2023-04-29T00:17:27;12.60;;;3.92;;
64500;SDS011;50874;24.150;-110.320;2023-04-29T00:19:53;15.52;;;3.53;;
64500;SDS011;50874;24.150;-110.320;2023-04-29T00:22:20;24.02;;;4.15;;
64500;SDS011;50874;24.150;-110.320;2023-04-29T00:24:47;12.48;;;3.67;;
64500;SDS011;50874;24.150;-110.320;2023-04-29T00:27:13;9.02;;;3.45;;
64500;SDS011;50874;24.150;-110.320;2023-04-29T00:29:41;11.00;;;3.30;;
64500;SDS011;50874;24.150;-110.320;2023-04-29T00:32:07;10.43;;;3.55;;
64500;SDS011;50874;24.150;-110.320;2023-04-29T00:34:34;13.30;;;3.63;;
64500;SDS011;50874;24.150;-110.320;2023-04-29T00:37:00;19.33;;;3.92;;
64500;SDS011;50874;24.150;-110.320;2023-04-29T00:39:27;15.63;;;5.07;;
64500;SDS011;50874;24.150;-110.320;2023-04-29T00:41:53;17.13;;;3.85;;
64500;SDS011;50874;24.150;-110.320;2023-04-29T00:44:19;17.25;;;3.90;;
64500;SDS011;50874;24.150;-110.320;2023-04-29T00:46:46;22.98;;;4.05;;
64500;SDS011;50874;24.150;-110.320;2023-04-29T00:49:12;19.90;;;4.72;;
64500;SDS011;50874;24.150;-110.320;2023-04-29T00:51:40;11.45;;;4.03;;
64500;SDS011;50874;24.150;-110.320;2023-04-29T00:54:06;12.43;;;3.67;;
64500;SDS011;50874;24.150;-110.320;2023-04-29T00:56:34;18.08;;;5.22;;
64500;SDS011;50874;24.150;-110.320;2023-04-29T00:59:02;9.77;;;4.28;;
64500;SDS011;50874;24.150;-110.320;2023-04-29T01:01:29;20.75;;;4.03;;
64500;SDS011;50874;24.150;-110.320;2023-04-29T01:03:56;14.20;;;4.63;;
64500;SDS011;50874;24.150;-110.320;2023-04-29T01:06:35;15.20;;;4.07;;
64500;SDS011;50874;24.150;-110.320;2023-04-29T01:15:04;10.85;;;3.50;;
64500;SDS011;50874;24.150;-110.320;2023-04-29T01:17:35;17.65;;;4.78;;
64500;SDS011;50874;24.150;-110.320;2023-04-29T01:20:08;17.05;;;4.78;;
64500;SDS011;50874;24.150;-110.320;2023-04-29T01:22:35;15.30;;;3.67;;
64500;SDS011;50874;24.150;-110.320;2023-04-29T01:25:03;12.95;;;4.57;;
64500;SDS011;50874;24.150;-110.320;2023-04-29T01:27:32;14.20;;;3.47;;
64500;SDS011;50874;24.150;-110.320;2023-04-29T01:33:02;15.70;;;4.90;;
64500;SDS011;50874;24.150;-110.320;2023-04-29T01:35:55;15.27;;;3.90;;
64500;SDS011;50874;24.150;-110.320;2023-04-29T01:38:38;21.30;;;5.30;;
64500;SDS011;50874;24.150;-110.320;2023-04-29T01:41:12;27.77;;;4.43;;
64500;SDS011;50874;24.150;-110.320;2023-04-29T01:44:03;16.77;;;4.18;;
64500;SDS011;50874;24.150;-110.320;2023-04-29T01:46:32;11.88;;;4.30;;
64500;SDS011;50874;24.150;-110.320;2023-04-29T01:48:59;19.98;;;4.72;;
64500;SDS011;50874;24.150;-110.320;2023-04-29T01:51:26;12.43;;;4.32;;
64500;SDS011;50874;24.150;-110.320;2023-04-29T01:53:54;24.08;;;5.53;;
64500;SDS011;50874;24.150;-110.320;2023-04-29T01:56:21;14.65;;;4.13;;
64500;SDS011;50874;24.150;-110.320;2023-04-29T01:58:47;17.55;;;4.00;;
64500;SDS011;50874;24.150;-110.320;2023-04-29T02:01:14;17.35;;;4.15;;
64500;SDS011;50874;24.150;-110.320;2023-04-29T02:03:40;11.93;;;4.40;;
64500;SDS011;50874;24.150;-110.320;2023-04-29T02:06:06;20.25;;;4.65;;
64500;SDS011;50874;24.150;-110.320;2023-04-29T02:08:33;18.85;;;4.65;;
64500;SDS011;50874;24.150;-110.320;2023-04-29T02:10:59;16.75;;;4.75;;
64500;SDS011;50874;24.150;-110.320;2023-04-29T02:13:26;18.13;;;4.78;;
64500;SDS011;50874;24.150;-110.320;2023-04-29T02:15:52;13.25;;;4.60;;
64500;SDS011;50874;24.150;-110.320;2023-04-29T02:18:19;20.17;;;5.93;;
64500;SDS011;50874;24.150;-110.320;2023-04-29T02:20:45;17.33;;;4.57;;
64500;SDS011;50874;24.150;-110.320;2023-04-29T02:23:12;19.60;;;4.78;;
64500;SDS011;50874;24.150;-110.320;2023-04-29T02:25:38;21.65;;;4.53;;
64500;SDS011;50874;24.150;-110.320;2023-04-29T02:28:05;17.63;;;4.50;;
64500;SDS011;50874;24.150;-110.320;2023-04-29T02:30:31;17.55;;;5.43;;
64500;SDS011;50874;24.150;-110.320;2023-04-29T02:32:58;25.52;;;5.40;;
64500;SDS011;50874;24.150;-110.320;2023-04-29T02:35:24;17.08;;;4.35;;
64500;SDS011;50874;24.150;-110.320;2023-04-29T02:37:51;16.42;;;4.85;;
64500;SDS011;50874;24.150;-110.320;2023-04-29T02:40:17;33.17;;;6.47;;
64500;SDS011;50874;24.150;-110.320;2023-04-29T02:42:44;25.60;;;5.97;;
64500;SDS011;50874;24.150;-110.320;2023-04-29T02:45:10;29.15;;;5.28;;
64500;SDS011;50874;24.150;-110.320;2023-04-29T02:47:37;20.30;;;5.20;;
64500;SDS011;50874;24.150;-110.320;2023-04-29T02:50:03;40.20;;;5.95;;
64500;SDS011;50874;24.150;-110.320;2023-04-29T02:52:30;21.90;;;5.85;;
64500;SDS011;50874;24.150;-110.320;2023-04-29T02:54:57;26.63;;;5.57;;
64500;SDS011;50874;24.150;-110.320;2023-04-29T02:57:23;25.05;;;5.75;;
64500;SDS011;50874;24.150;-110.320;2023-04-29T02:59:50;22.27;;;5.63;;
64500;SDS011;50874;24.150;-110.320;2023-04-29T03:02:16;25.35;;;5.50;;
64500;SDS011;50874;24.150;-110.320;2023-04-29T03:04:43;23.55;;;6.30;;
64500;SDS011;50874;24.150;-110.320;2023-04-29T03:07:09;42.38;;;6.30;;
64500;SDS011;50874;24.150;-110.320;2023-04-29T03:09:36;31.58;;;6.20;;
64500;SDS011;50874;24.150;-110.320;2023-04-29T03:12:02;23.75;;;6.10;;
64500;SDS011;50874;24.150;-110.320;2023-04-29T03:14:29;31.38;;;6.18;;
64500;SDS011;50874;24.150;-110.320;2023-04-29T03:16:55;21.92;;;5.75;;
64500;SDS011;50874;24.150;-110.320;2023-04-29T03:19:22;19.88;;;5.15;;
64500;SDS011;50874;24.150;-110.320;2023-04-29T03:21:48;27.63;;;5.05;;
64500;SDS011;50874;24.150;-110.320;2023-04-29T03:24:15;18.48;;;5.05;;
64500;SDS011;50874;24.150;-110.320;2023-04-29T03:26:41;24.88;;;7.00;;
64500;SDS011;50874;24.150;-110.320;2023-04-29T03:29:07;32.80;;;6.53;;
64500;SDS011;50874;24.150;-110.320;2023-04-29T03:31:34;26.08;;;6.18;;
64500;SDS011;50874;24.150;-110.320;2023-04-29T03:34:00;26.45;;;5.75;;
64500;SDS011;50874;24.150;-110.320;2023-04-29T03:36:27;17.70;;;5.20;;
64500;SDS011;50874;24.150;-110.320;2023-04-29T03:38:53;20.60;;;5.82;;
64500;SDS011;50874;24.150;-110.320;2023-04-29T03:41:20;36.38;;;6.20;;
64500;SDS011;50874;24.150;-110.320;2023-04-29T03:43:48;22.17;;;6.32;;
64500;SDS011;50874;24.150;-110.320;2023-04-29T03:46:16;24.15;;;6.35;;
64500;SDS011;50874;24.150;-110.320;2023-04-29T03:48:42;24.42;;;6.35;;
64500;SDS011;50874;24.150;-110.320;2023-04-29T03:51:09;24.40;;;5.78;;
64500;SDS011;50874;24.150;-110.320;2023-04-29T03:53:35;20.95;;;5.97;;
64500;SDS011;50874;24.150;-110.320;2023-04-29T03:56:02;21.02;;;6.13;;
64500;SDS011;50874;24.150;-110.320;2023-04-29T03:58:29;17.50;;;5.78;;
64500;SDS011;50874;24.150;-110.320;2023-04-29T04:00:55;20.35;;;6.25;;
64500;SDS011;50874;24.150;-110.320;2023-04-29T04:03:21;17.88;;;6.22;;
64500;SDS011;50874;24.150;-110.320;2023-04-29T04:05:50;33.30;;;7.57;;
64500;SDS011;50874;24.150;-110.320;2023-04-29T04:08:16;25.77;;;6.43;;
64500;SDS011;50874;24.150;-110.320;2023-04-29T04:10:42;24.98;;;6.22;;
64500;SDS011;50874;24.150;-110.320;2023-04-29T04:13:09;31.83;;;6.80;;
64500;SDS011;50874;24.150;-110.320;2023-04-29T04:15:35;35.25;;;7.43;;
64500;SDS011;50874;24.150;-110.320;2023-04-29T04:18:02;20.48;;;5.82;;
64500;SDS011;50874;24.150;-110.320;2023-04-29T04:20:28;20.60;;;6.78;;
64500;SDS011;50874;24.150;-110.320;2023-04-29T04:22:55;22.63;;;6.85;;
64500;SDS011;50874;24.150;-110.320;2023-04-29T04:25:21;28.98;;;6.90;;
64500;SDS011;50874;24.150;-110.320;2023-04-29T04:27:48;24.80;;;6.50;;
64500;SDS011;50874;24.150;-110.320;2023-04-29T04:30:14;23.20;;;6.55;;
64500;SDS011;50874;24.150;-110.320;2023-04-29T04:32:41;19.48;;;6.10;;
64500;SDS011;50874;24.150;-110.320;2023-04-29T04:35:07;20.42;;;6.18;;
64500;SDS011;50874;24.150;-110.320;2023-04-29T04:37:34;27.73;;;6.65;;
64500;SDS011;50874;24.150;-110.320;2023-04-29T04:40:00;26.13;;;7.72;;
64500;SDS011;50874;24.150;-110.320;2023-04-29T04:42:27;27.70;;;7.00;;
64500;SDS011;50874;24.150;-110.320;2023-04-29T04:44:54;28.60;;;6.00;;
64500;SDS011;50874;24.150;-110.320;2023-04-29T04:47:21;28.50;;;7.30;;
64500;SDS011;50874;24.150;-110.320;2023-04-29T04:49:48;27.67;;;7.22;;
64500;SDS011;50874;24.150;-110.320;2023-04-29T04:52:14;28.92;;;7.15;;
64500;SDS011;50874;24.150;-110.320;2023-04-29T04:54:43;23.48;;;6.50;;
64500;SDS011;50874;24.150;-110.320;2023-04-29T04:57:10;33.67;;;7.95;;
64500;SDS011;50874;24.150;-110.320;2023-04-29T04:59:37;22.55;;;7.50;;
64500;SDS011;50874;24.150;-110.320;2023-04-29T05:02:03;27.35;;;6.47;;
64500;SDS011;50874;24.150;-110.320;2023-04-29T05:04:30;34.70;;;8.73;;
64500;SDS011;50874;24.150;-110.320;2023-04-29T05:06:56;23.45;;;7.63;;
64500;SDS011;50874;24.150;-110.320;2023-04-29T05:09:23;27.60;;;7.70;;
64500;SDS011;50874;24.150;-110.320;2023-04-29T05:11:51;30.42;;;7.07;;
64500;SDS011;50874;24.150;-110.320;2023-04-29T05:14:18;32.35;;;7.93;;
64500;SDS011;50874;24.150;-110.320;2023-04-29T05:16:44;21.08;;;6.97;;
64500;SDS011;50874;24.150;-110.320;2023-04-29T05:19:11;31.85;;;7.68;;
64500;SDS011;50874;24.150;-110.320;2023-04-29T05:21:37;26.35;;;7.30;;
64500;SDS011;50874;24.150;-110.320;2023-04-29T05:24:04;27.65;;;7.68;;
64500;SDS011;50874;24.150;-110.320;2023-04-29T05:26:31;28.92;;;7.43;;
64500;SDS011;50874;24.150;-110.320;2023-04-29T05:28:57;28.02;;;6.75;;
64500;SDS011;50874;24.150;-110.320;2023-04-29T05:31:24;50.10;;;8.00;;
64500;SDS011;50874;24.150;-110.320;2023-04-29T05:33:52;22.98;;;8.23;;
64500;SDS011;50874;24.150;-110.320;2023-04-29T05:36:19;28.17;;;8.07;;
64500;SDS011;50874;24.150;-110.320;2023-04-29T05:38:45;25.50;;;6.47;;
64500;SDS011;50874;24.150;-110.320;2023-04-29T05:41:11;35.90;;;9.43;;
64500;SDS011;50874;24.150;-110.320;2023-04-29T05:43:38;22.85;;;7.32;;
64500;SDS011;50874;24.150;-110.320;2023-04-29T05:46:04;25.67;;;7.78;;
64500;SDS011;50874;24.150;-110.320;2023-04-29T05:48:31;20.45;;;6.65;;
64500;SDS011;50874;24.150;-110.320;2023-04-29T05:50:57;29.05;;;7.43;;
64500;SDS011;50874;24.150;-110.320;2023-04-29T05:53:24;26.85;;;8.18;;
64500;SDS011;50874;24.150;-110.320;2023-04-29T05:55:50;38.35;;;7.80;;
64500;SDS011;50874;24.150;-110.320;2023-04-29T05:58:17;25.67;;;8.52;;
64500;SDS011;50874;24.150;-110.320;2023-04-29T06:00:43;23.60;;;7.18;;
64500;SDS011;50874;24.150;-110.320;2023-04-29T06:03:10;20.15;;;6.97;;
64500;SDS011;50874;24.150;-110.320;2023-04-29T06:05:36;29.20;;;8.23;;
64500;SDS011;50874;24.150;-110.320;2023-04-29T06:08:03;31.20;;;6.90;;
64500;SDS011;50874;24.150;-110.320;2023-04-29T06:10:30;27.98;;;7.13;;
64500;SDS011;50874;24.150;-110.320;2023-04-29T06:12:57;27.38;;;7.90;;
64500;SDS011;50874;24.150;-110.320;2023-04-29T06:15:24;23.70;;;6.95;;
64500;SDS011;50874;24.150;-110.320;2023-04-29T06:17:50;28.40;;;7.00;;
64500;SDS011;50874;24.150;-110.320;2023-04-29T06:20:17;28.65;;;8.00;;
64500;SDS011;50874;24.150;-110.320;2023-04-29T06:22:44;29.95;;;7.50;;
64500;SDS011;50874;24.150;-110.320;2023-04-29T06:25:11;29.67;;;7.78;;
64500;SDS011;50874;24.150;-110.320;2023-04-29T06:27:38;26.35;;;6.68;;
64500;SDS011;50874;24.150;-110.320;2023-04-29T06:30:05;23.42;;;6.70;;
64500;SDS011;50874;24.150;-110.320;2023-04-29T06:32:32;25.67;;;8.43;;
64500;SDS011;50874;24.150;-110.320;2023-04-29T06:34:58;22.55;;;7.43;;
64500;SDS011;50874;24.150;-110.320;2023-04-29T06:37:25;29.58;;;7.45;;
64500;SDS011;50874;24.150;-110.320;2023-04-29T06:39:53;23.27;;;7.45;;
64500;SDS011;50874;24.150;-110.320;2023-04-29T06:42:19;32.33;;;6.85;;
64500;SDS011;50874;24.150;-110.320;2023-04-29T06:44:45;24.00;;;8.15;;
64500;SDS011;50874;24.150;-110.320;2023-04-29T06:47:12;21.23;;;7.53;;
64500;SDS011;50874;24.150;-110.320;2023-04-29T06:49:39;19.42;;;7.38;;
64500;SDS011;50874;24.150;-110.320;2023-04-29T06:52:08;24.75;;;7.35;;
64500;SDS011;50874;24.150;-110.320;2023-04-29T06:54:34;22.63;;;7.47;;
64500;SDS011;50874;24.150;-110.320;2023-04-29T06:57:01;22.05;;;7.47;;
64500;SDS011;50874;24.150;-110.320;2023-04-29T06:59:27;24.67;;;6.85;;
64500;SDS011;50874;24.150;-110.320;2023-04-29T07:01:53;25.85;;;6.90;;
64500;SDS011;50874;24.150;-110.320;2023-04-29T07:04:20;21.75;;;7.10;;
64500;SDS011;50874;24.150;-110.320;2023-04-29T07:06:46;22.92;;;7.20;;
64500;SDS011;50874;24.150;-110.320;2023-04-29T07:09:13;26.85;;;7.43;;
64500;SDS011;50874;24.150;-110.320;2023-04-29T07:11:40;33.45;;;7.30;;
64500;SDS011;50874;24.150;-110.320;2023-04-29T07:14:06;31.70;;;8.05;;
64500;SDS011;50874;24.150;-110.320;2023-04-29T07:16:33;26.65;;;7.82;;
64500;SDS011;50874;24.150;-110.320;2023-04-29T07:18:59;25.17;;;7.63;;
64500;SDS011;50874;24.150;-110.320;2023-04-29T07:21:26;25.85;;;7.20;;
64500;SDS011;50874;24.150;-110.320;2023-04-29T07:23:52;19.17;;;6.55;;
64500;SDS011;50874;24.150;-110.320;2023-04-29T07:26:19;22.00;;;7.53;;
64500;SDS011;50874;24.150;-110.320;2023-04-29T07:28:46;25.77;;;7.43;;
64500;SDS011;50874;24.150;-110.320;2023-04-29T07:31:14;20.13;;;7.32;;
64500;SDS011;50874;24.150;-110.320;2023-04-29T07:33:40;24.80;;;6.93;;
64500;SDS011;50874;24.150;-110.320;2023-04-29T07:36:09;25.00;;;6.85;;
64500;SDS011;50874;24.150;-110.320;2023-04-29T07:38:36;25.40;;;6.95;;
64500;SDS011;50874;24.150;-110.320;2023-04-29T07:41:02;21.77;;;6.50;;
64500;SDS011;50874;24.150;-110.320;2023-04-29T07:43:29;27.92;;;7.63;;
64500;SDS011;50874;24.150;-110.320;2023-04-29T07:45:55;34.75;;;8.40;;
64500;SDS011;50874;24.150;-110.320;2023-04-29T07:48:22;32.85;;;7.45;;
64500;SDS011;50874;24.150;-110.320;2023-04-29T07:50:48;26.58;;;7.78;;
64500;SDS011;50874;24.150;-110.320;2023-04-29T07:53:15;25.60;;;7.05;;
64500;SDS011;50874;24.150;-110.320;2023-04-29T07:55:42;24.35;;;7.68;;
64500;SDS011;50874;24.150;-110.320;2023-04-29T07:58:08;21.83;;;8.07;;
64500;SDS011;50874;24.150;-110.320;2023-04-29T08:00:35;26.58;;;7.63;;
64500;SDS011;50874;24.150;-110.320;2023-04-29T08:03:01;39.97;;;7.55;;
64500;SDS011;50874;24.150;-110.320;2023-04-29T08:05:28;21.20;;;7.28;;
64500;SDS011;50874;24.150;-110.320;2023-04-29T08:07:55;24.63;;;7.13;;
64500;SDS011;50874;24.150;-110.320;2023-04-29T08:10:21;31.23;;;8.18;;
64500;SDS011;50874;24.150;-110.320;2023-04-29T08:12:48;24.90;;;7.53;;
64500;SDS011;50874;24.150;-110.320;2023-04-29T08:15:14;21.60;;;8.00;;
64500;SDS011;50874;24.150;-110.320;2023-04-29T08:17:43;23.30;;;9.50;;
64500;SDS011;50874;24.150;-110.320;2023-04-29T08:20:10;23.75;;;8.23;;
64500;SDS011;50874;24.150;-110.320;2023-04-29T08:22:36;23.05;;;7.28;;
64500;SDS011;50874;24.150;-110.320;2023-04-29T08:25:03;29.02;;;8.43;;
64500;SDS011;50874;24.150;-110.320;2023-04-29T08:27:30;20.95;;;7.07;;
64500;SDS011;50874;24.150;-110.320;2023-04-29T08:29:56;28.85;;;7.40;;
64500;SDS011;50874;24.150;-110.320;2023-04-29T08:32:23;24.55;;;8.38;;
64500;SDS011;50874;24.150;-110.320;2023-04-29T08:34:49;28.35;;;8.27;;
64500;SDS011;50874;24.150;-110.320;2023-04-29T08:37:16;25.20;;;9.35;;
64500;SDS011;50874;24.150;-110.320;2023-04-29T08:39:42;24.58;;;8.95;;
64500;SDS011;50874;24.150;-110.320;2023-04-29T08:42:11;36.28;;;9.25;;
64500;SDS011;50874;24.150;-110.320;2023-04-29T08:44:40;28.15;;;8.30;;
64500;SDS011;50874;24.150;-110.320;2023-04-29T08:47:08;26.85;;;8.63;;
64500;SDS011;50874;24.150;-110.320;2023-04-29T08:49:36;27.58;;;8.20;;
64500;SDS011;50874;24.150;-110.320;2023-04-29T08:52:02;20.45;;;8.27;;
64500;SDS011;50874;24.150;-110.320;2023-04-29T08:54:30;20.92;;;7.90;;
64500;SDS011;50874;24.150;-110.320;2023-04-29T08:56:57;26.55;;;8.07;;
64500;SDS011;50874;24.150;-110.320;2023-04-29T08:59:24;18.02;;;7.78;;
64500;SDS011;50874;24.150;-110.320;2023-04-29T09:01:52;20.70;;;7.40;;
64500;SDS011;50874;24.150;-110.320;2023-04-29T09:07:04;17.17;;;6.43;;
64500;SDS011;50874;24.150;-110.320;2023-04-29T09:09:32;13.77;;;6.30;;
64500;SDS011;50874;24.150;-110.320;2023-04-29T09:11:59;11.02;;;6.32;;
64500;SDS011;50874;24.150;-110.320;2023-04-29T09:14:26;19.33;;;7.40;;
64500;SDS011;50874;24.150;-110.320;2023-04-29T09:16:57;13.27;;;6.97;;
64500;SDS011;50874;24.150;-110.320;2023-04-29T09:19:31;18.23;;;7.75;;
64500;SDS011;50874;24.150;-110.320;2023-04-29T09:21:59;20.00;;;7.72;;
64500;SDS011;50874;24.150;-110.320;2023-04-29T09:24:27;26.65;;;9.15;;
64500;SDS011;50874;24.150;-110.320;2023-04-29T09:26:56;18.95;;;8.27;;
64500;SDS011;50874;24.150;-110.320;2023-04-29T09:29:23;19.38;;;9.20;;
64500;SDS011;50874;24.150;-110.320;2023-04-29T09:31:50;26.23;;;9.98;;
64500;SDS011;50874;24.150;-110.320;2023-04-29T09:34:18;21.33;;;9.95;;
64500;SDS011;50874;24.150;-110.320;2023-04-29T09:37:03;21.58;;;10.40;;
64500;SDS011;50874;24.150;-110.320;2023-04-29T09:39:52;28.98;;;10.63;;
64500;SDS011;50874;24.150;-110.320;2023-04-29T09:42:19;26.20;;;10.73;;
64500;SDS011;50874;24.150;-110.320;2023-04-29T09:44:45;25.20;;;9.95;;
64500;SDS011;50874;24.150;-110.320;2023-04-29T09:47:12;33.78;;;10.75;;
64500;SDS011;50874;24.150;-110.320;2023-04-29T09:49:40;26.77;;;10.02;;
64500;SDS011;50874;24.150;-110.320;2023-04-29T09:52:10;26.48;;;10.02;;
64500;SDS011;50874;24.150;-110.320;2023-04-29T09:54:38;26.38;;;11.05;;
64500;SDS011;50874;24.150;-110.320;2023-04-29T09:57:06;24.98;;;10.23;;
64500;SDS011;50874;24.150;-110.320;2023-04-29T09:59:35;34.85;;;10.68;;
64500;SDS011;50874;24.150;-110.320;2023-04-29T10:02:07;22.70;;;10.48;;
64500;SDS011;50874;24.150;-110.320;2023-04-29T10:04:45;32.60;;;10.57;;
64500;SDS011;50874;24.150;-110.320;2023-04-29T10:07:17;30.58;;;11.27;;
64500;SDS011;50874;24.150;-110.320;2023-04-29T10:09:45;30.63;;;10.90;;
64500;SDS011;50874;24.150;-110.320;2023-04-29T10:12:15;26.05;;;11.50;;
64500;SDS011;50874;24.150;-110.320;2023-04-29T10:14:46;30.50;;;12.20;;
64500;SDS011;50874;24.150;-110.320;2023-04-29T10:18:02;27.20;;;11.68;;
64500;SDS011;50874;24.150;-110.320;2023-04-29T10:20:12;31.33;;;11.65;;
64500;SDS011;50874;24.150;-110.320;2023-04-29T10:25:17;27.25;;;12.68;;
64500;SDS011;50874;24.150;-110.320;2023-04-29T10:27:45;35.55;;;13.05;;
64500;SDS011;50874;24.150;-110.320;2023-04-29T10:30:14;36.35;;;10.98;;
64500;SDS011;50874;24.150;-110.320;2023-04-29T10:32:45;50.10;;;12.27;;
64500;SDS011;50874;24.150;-110.320;2023-04-29T10:35:13;28.23;;;11.45;;
64500;SDS011;50874;24.150;-110.320;2023-04-29T10:37:41;44.78;;;11.40;;
64500;SDS011;50874;24.150;-110.320;2023-04-29T10:43:02;47.67;;;12.50;;
64500;SDS011;50874;24.150;-110.320;2023-04-29T10:45:29;39.67;;;12.23;;
64500;SDS011;50874;24.150;-110.320;2023-04-29T10:53:14;34.80;;;12.35;;
64500;SDS011;50874;24.150;-110.320;2023-04-29T10:55:41;33.67;;;11.85;;
64500;SDS011;50874;24.150;-110.320;2023-04-29T11:01:00;34.45;;;11.68;;
64500;SDS011;50874;24.150;-110.320;2023-04-29T11:03:45;38.95;;;11.93;;
64500;SDS011;50874;24.150;-110.320;2023-04-29T11:06:14;25.20;;;11.13;;
64500;SDS011;50874;24.150;-110.320;2023-04-29T11:08:41;30.85;;;12.43;;
64500;SDS011;50874;24.150;-110.320;2023-04-29T11:11:07;33.80;;;11.10;;
64500;SDS011;50874;24.150;-110.320;2023-04-29T11:13:38;30.73;;;11.70;;
64500;SDS011;50874;24.150;-110.320;2023-04-29T11:18:36;36.70;;;11.93;;
64500;SDS011;50874;24.150;-110.320;2023-04-29T11:21:39;32.40;;;9.85;;
64500;SDS011;50874;24.150;-110.320;2023-04-29T11:24:06;30.27;;;11.27;;
64500;SDS011;50874;24.150;-110.320;2023-04-29T11:26:34;28.55;;;9.43;;
64500;SDS011;50874;24.150;-110.320;2023-04-29T11:29:01;22.13;;;9.63;;
64500;SDS011;50874;24.150;-110.320;2023-04-29T11:31:29;18.35;;;8.75;;
64500;SDS011;50874;24.150;-110.320;2023-04-29T11:33:57;15.57;;;8.77;;
64500;SDS011;50874;24.150;-110.320;2023-04-29T11:36:24;16.48;;;8.35;;
64500;SDS011;50874;24.150;-110.320;2023-04-29T11:38:52;15.65;;;7.50;;
64500;SDS011;50874;24.150;-110.320;2023-04-29T11:41:18;12.80;;;6.95;;
64500;SDS011;50874;24.150;-110.320;2023-04-29T11:43:46;15.15;;;7.07;;
64500;SDS011;50874;24.150;-110.320;2023-04-29T11:46:19;12.02;;;7.35;;
64500;SDS011;50874;24.150;-110.320;2023-04-29T11:48:46;11.80;;;6.97;;
64500;SDS011;50874;24.150;-110.320;2023-04-29T11:51:14;12.27;;;6.50;;
64500;SDS011;50874;24.150;-110.320;2023-04-29T11:53:41;11.02;;;5.70;;
64500;SDS011;50874;24.150;-110.320;2023-04-29T11:56:08;12.80;;;6.35;;
64500;SDS011;50874;24.150;-110.320;2023-04-29T11:58:35;15.43;;;7.22;;
64500;SDS011;50874;24.150;-110.320;2023-04-29T12:01:03;11.30;;;6.40;;
64500;SDS011;50874;24.150;-110.320;2023-04-29T12:03:33;10.80;;;5.90;;
64500;SDS011;50874;24.150;-110.320;2023-04-29T12:06:01;7.80;;;5.30;;
64500;SDS011;50874;24.150;-110.320;2023-04-29T12:08:28;9.48;;;5.18;;
64500;SDS011;50874;24.150;-110.320;2023-04-29T12:10:56;6.63;;;4.70;;
64500;SDS011;50874;24.150;-110.320;2023-04-29T12:13:24;9.15;;;5.28;;
64500;SDS011;50874;24.150;-110.320;2023-04-29T12:15:52;6.93;;;4.65;;
64500;SDS011;50874;24.150;-110.320;2023-04-29T12:18:20;8.75;;;5.20;;
64500;SDS011;50874;24.150;-110.320;2023-04-29T12:20:48;6.35;;;4.85;;
64500;SDS011;50874;24.150;-110.320;2023-04-29T12:23:20;5.72;;;4.65;;
64500;SDS011;50874;24.150;-110.320;2023-04-29T12:25:55;10.88;;;6.38;;
64500;SDS011;50874;24.150;-110.320;2023-04-29T12:28:23;7.88;;;4.68;;
64500;SDS011;50874;24.150;-110.320;2023-04-29T12:30:51;12.32;;;5.10;;
64500;SDS011;50874;24.150;-110.320;2023-04-29T12:33:25;10.27;;;5.15;;
64500;SDS011;50874;24.150;-110.320;2023-04-29T12:35:53;8.20;;;5.20;;
64500;SDS011;50874;24.150;-110.320;2023-04-29T12:38:22;9.27;;;5.45;;
64500;SDS011;50874;24.150;-110.320;2023-04-29T12:40:53;9.35;;;5.25;;
64500;SDS011;50874;24.150;-110.320;2023-04-29T12:43:30;9.43;;;5.75;;
64500;SDS011;50874;24.150;-110.320;2023-04-29T12:46:04;9.90;;;5.93;;
64500;SDS011;50874;24.150;-110.320;2023-04-29T12:48:32;12.23;;;5.90;;
64500;SDS011;50874;24.150;-110.320;2023-04-29T12:51:02;9.98;;;4.85;;
64500;SDS011;50874;24.150;-110.320;2023-04-29T12:53:29;15.13;;;5.53;;
64500;SDS011;50874;24.150;-110.320;2023-04-29T12:55:56;10.23;;;5.32;;
64500;SDS011;50874;24.150;-110.320;2023-04-29T12:58:23;12.02;;;5.40;;
64500;SDS011;50874;24.150;-110.320;2023-04-29T13:00:52;13.93;;;5.82;;
64500;SDS011;50874;24.150;-110.320;2023-04-29T13:03:19;12.35;;;5.75;;
64500;SDS011;50874;24.150;-110.320;2023-04-29T13:05:46;17.15;;;6.80;;
64500;SDS011;50874;24.150;-110.320;2023-04-29T13:08:15;16.15;;;6.88;;
64500;SDS011;50874;24.150;-110.320;2023-04-29T13:10:42;16.38;;;7.15;;
64500;SDS011;50874;24.150;-110.320;2023-04-29T13:13:08;11.98;;;6.35;;
64500;SDS011;50874;24.150;-110.320;2023-04-29T13:15:35;14.07;;;6.70;;
64500;SDS011;50874;24.150;-110.320;2023-04-29T13:18:05;12.80;;;7.30;;
64500;SDS011;50874;24.150;-110.320;2023-04-29T13:20:31;14.15;;;7.32;;
64500;SDS011;50874;24.150;-110.320;2023-04-29T13:22:58;15.20;;;6.60;;
64500;SDS011;50874;24.150;-110.320;2023-04-29T13:25:24;11.40;;;6.55;;
64500;SDS011;50874;24.150;-110.320;2023-04-29T13:27:51;13.57;;;5.75;;
64500;SDS011;50874;24.150;-110.320;2023-04-29T13:30:17;17.58;;;5.95;;
64500;SDS011;50874;24.150;-110.320;2023-04-29T13:32:44;8.48;;;4.72;;
64500;SDS011;50874;24.150;-110.320;2023-04-29T13:35:10;6.70;;;4.85;;
64500;SDS011;50874;24.150;-110.320;2023-04-29T13:37:37;7.97;;;4.10;;
64500;SDS011;50874;24.150;-110.320;2023-04-29T13:40:04;7.78;;;3.92;;
64500;SDS011;50874;24.150;-110.320;2023-04-29T13:42:31;6.28;;;3.78;;
64500;SDS011;50874;24.150;-110.320;2023-04-29T13:44:57;8.70;;;4.40;;
64500;SDS011;50874;24.150;-110.320;2023-04-29T13:47:24;7.63;;;3.63;;
64500;SDS011;50874;24.150;-110.320;2023-04-29T13:49:51;5.68;;;3.85;;
64500;SDS011;50874;24.150;-110.320;2023-04-29T13:52:17;10.05;;;3.63;;
64500;SDS011;50874;24.150;-110.320;2023-04-29T13:54:44;10.30;;;3.47;;
64500;SDS011;50874;24.150;-110.320;2023-04-29T13:57:11;6.10;;;3.60;;
64500;SDS011;50874;24.150;-110.320;2023-04-29T13:59:37;7.35;;;4.10;;
64500;SDS011;50874;24.150;-110.320;2023-04-29T14:02:03;13.60;;;4.05;;
64500;SDS011;50874;24.150;-110.320;2023-04-29T14:04:30;10.68;;;3.33;;
64500;SDS011;50874;24.150;-110.320;2023-04-29T14:06:56;8.07;;;3.03;;
64500;SDS011;50874;24.150;-110.320;2023-04-29T14:09:23;8.00;;;3.40;;
64500;SDS011;50874;24.150;-110.320;2023-04-29T14:11:50;14.07;;;4.13;;
64500;SDS011;50874;24.150;-110.320;2023-04-29T14:14:17;6.15;;;2.97;;
64500;SDS011;50874;24.150;-110.320;2023-04-29T14:16:43;15.80;;;3.35;;
64500;SDS011;50874;24.150;-110.320;2023-04-29T14:19:09;9.68;;;3.22;;
64500;SDS011;50874;24.150;-110.320;2023-04-29T14:21:36;8.40;;;3.40;;
64500;SDS011;50874;24.150;-110.320;2023-04-29T14:24:02;16.80;;;3.80;;
64500;SDS011;50874;24.150;-110.320;2023-04-29T14:26:29;32.30;;;4.25;;